Wakeman, Ohio
Current Conditions -  °F | °C
As of 4:53 AM on Thursday 23 Oct 2014 (Local Time) from KLPR Reporting Station
Scattered Clouds Scattered Clouds  
Wind Chill: 40°   Ceiling: Unl
Heat Index: 44°   Visibility: 10mi
Dew Point: 42°   Wind: 7mph
Humidity: 93%   Direction: 320°NW
Pressure: 30.21"   Gusts: NA
Location:  41.25°N, 82.4°W
Report Text: KLPR 230853Z AUTO 32006KT 10SM SCT013 07/06 A3021 RMK AO2 SLP234 T00670056 56005 TSNO
Loading
Personal Weather Stations






























Interactive Weather Map New forecast layout! Learn more

10-Day Weather Forecast

Advertisements
Track Severe Weather on mobile